Terminal Aerodrome Forecast
Issued by NWS Sterling, VA

Home | Current Version | Previous Version | Text Only | Print | Product List | Glossary On
Versions: 1 2 3 4 5 6 7 8 9 10 11 12
677
FTUS41 KLWX 251736
TAFMRB
TAF
KMRB 251736Z 2518/2618 28015G25KT P6SM OVC045
     FM260000 29017G27KT P6SM SCT250
     FM260100 29018G32KT P6SM SCT045
     FM260200 29018G30KT P6SM SCT250
     FM260400 29017G29KT P6SM SCT040
     FM260700 29013G22KT P6SM SCT040=

USA.gov is the U.S. government's official web portal to all federal, state and local government web resources and services.